Terminal Aerodrome Forecast
Issued by NWS

Home | Current Version | Previous Version | Graphics & Text | Print | Product List | Glossary On
Versions: 1 2 3 4 5 6 7 8 9 10 11 12 13 14
699
FTUS43 KBIS 172002 AAA
TAFMOT
TAF AMD
KMOT 172002Z 1720/1818 21017KT P6SM FEW200
     FM172300 24014KT P6SM SCT200=

USA.gov is the U.S. government's official web portal to all federal, state and local government web resources and services.